Delta Ios — SVAK9 — position and weather

sailwx.info

Track history (hours):
 
Tides and Currents Weather Stations Pressure Air Temp Water Temp Dewpoint Dewpoint Depression Visibility Wind Speed Wind Dir Waves Ship Positions

Delta Ios

Last reported at 2017-Jun-25 11:59 UTC. Time now 2017-Jun-25 12:22 UTC.
Position N 49°37' W 003°25'.

Length 276 m; draft 15.7 m.

Type: Tanker. MMSI: 240821000.

Date/timePositionNaut miles runAvg speedWind from/ knotsBaromVisibWave heightAir tempDewpointWater temp
2017-Jun-25 11:59N 49°37' W 003°25'610.5
2017-Jun-25 11:25N 49°34' W 003°32'510.5
2017-Jun-25 10:59N 49°32' W 003°39'910.2
2017-Jun-25 10:07N 49°28' W 003°50'510.5
2017-Jun-25 09:38N 49°25' W 003°57'110.6
2017-Jun-25 09:30N 49°24' W 003°59'611.0
2017-Jun-25 08:58N 49°21' W 004°07'511.4
2017-Jun-25 08:29N 49°19' W 004°14'1612.0
2017-Jun-25 07:12N 49°11' W 004°35'412.6
2017-Jun-25 06:54N 49°09' W 004°39'812.9
2017-Jun-25 06:19N 49°05' W 004°50'413.2
2017-Jun-25 06:00N 49°03' W 004°55'613.2
2017-Jun-25 05:30N 48°60' W 005°04'713.5
2017-Jun-25 05:00N 48°56' W 005°12'713.5
2017-Jun-25 04:30N 48°53' W 005°21'713.3
2017-Jun-25 04:00N 48°50' W 005°30'713.1
2017-Jun-25 03:30N 48°46' W 005°38'713.2
2017-Jun-25 03:00N 48°40' W 005°43'613.0
2017-Jun-25 02:30N 48°34' W 005°48'612.8
2017-Jun-25 02:00N 48°29' W 005°52'712.4
2017-Jun-25 01:29N 48°23' W 005°57'612.4
2017-Jun-25 00:58N 48°17' W 006°01'612.2
2017-Jun-25 00:30N 48°12' W 006°05'712.2
2017-Jun-24 23:55N 48°06' W 006°10'512.3
2017-Jun-24 23:30N 48°02' W 006°14'612.1
2017-Jun-24 23:00N 47°56' W 006°18'811.5
2017-Jun-24 22:17N 47°49' W 006°24'52711.3
2017-Jun-22 23:33N 39°26' W 009°57'112.1
2017-Jun-22 23:30N 39°25' W 009°57'611.4
2017-Jun-22 23:00N 39°19' W 009°57'611.3
2017-Jun-22 22:30N 39°14' W 009°57'611.7
2017-Jun-22 22:00N 39°08' W 009°57'611.6
2017-Jun-22 21:30N 39°02' W 009°57'611.5
2017-Jun-22 21:00N 38°56' W 009°57'611.8
2017-Jun-22 20:30N 38°50' W 009°57'611.8
2017-Jun-22 20:00N 38°44' W 009°57'611.9
2017-Jun-22 19:30N 38°39' W 009°56'611.6
2017-Jun-22 19:00N 38°33' W 009°54'611.8
2017-Jun-22 18:30N 38°27' W 009°53'611.8
2017-Jun-22 18:00N 38°21' W 009°51'611.5
2017-Jun-22 17:30N 38°16' W 009°50'611.4
2017-Jun-22 17:00N 38°10' W 009°49'611.5
2017-Jun-22 16:30N 38°04' W 009°47'611.5
2017-Jun-22 16:00N 37°59' W 009°45'611.7
2017-Jun-22 15:30N 37°53' W 009°43'611.5
2017-Jun-22 15:00N 37°48' W 009°41'1211.4
2017-Jun-22 14:00N 37°37' W 009°38'611.6
2017-Jun-22 13:30N 37°31' W 009°36'611.4
2017-Jun-22 13:00N 37°25' W 009°34'611.5
2017-Jun-22 12:30N 37°20' W 009°33'611.5
2017-Jun-22 11:59N 37°14' W 009°31'611.5
2017-Jun-22 11:30N 37°09' W 009°30'611.6
2017-Jun-22 11:00N 37°03' W 009°28'611.6
2017-Jun-22 10:30N 36°57' W 009°26'611.6
2017-Jun-22 10:00N 36°52' W 009°24'611.4
2017-Jun-22 09:30N 36°47' W 009°20'611.8
2017-Jun-22 09:00N 36°43' W 009°15'611.7
2017-Jun-22 08:30N 36°40' W 009°09'611.4
2017-Jun-22 08:00N 36°38' W 009°02'611.4
2017-Jun-22 07:30N 36°36' W 008°55'611.5
2017-Jun-22 06:56N 36°34' W 008°48'911.6
2017-Jun-22 06:08N 36°31' W 008°36'211.5
2017-Jun-22 05:59N 36°31' W 008°34'511.3
2017-Jun-22 05:30N 36°29' W 008°28'611.4
2017-Jun-22 05:00N 36°27' W 008°21'811.6
2017-Jun-22 04:19N 36°25' W 008°12'411.6
2017-Jun-22 04:00N 36°24' W 008°08'611.4
2017-Jun-22 03:30N 36°22' W 008°01'611.4
2017-Jun-22 03:00N 36°20' W 007°54'611.9
2017-Jun-22 02:29N 36°18' W 007°47'611.5
2017-Jun-22 01:57N 36°16' W 007°40'511.3
2017-Jun-22 01:30N 36°15' W 007°34'611.2
2017-Jun-22 01:00N 36°13' W 007°27'2711.5
2017-Jun-21 22:40N 36°05' W 006°55'211.4
2017-Jun-21 22:30N 36°05' W 006°53'611.4
2017-Jun-21 21:59N 36°03' W 006°46'611.5
2017-Jun-21 21:28N 36°02' W 006°39'4911.5
2017-Jun-21 17:14N 35°58' W 005°39'2 9.6
2017-Jun-21 16:59N 35°58' W 005°36'5 9.4
2017-Jun-21 16:30N 35°60' W 005°30'5 9.2
2017-Jun-21 16:00N 36°01' W 005°25'510.3
2017-Jun-21 15:30N 36°02' W 005°19'611.3
2017-Jun-21 15:00N 36°03' W 005°12'15111.4
2017-Jun-21 01:46N 36°26' W 002°07'311.4
2017-Jun-21 01:30N 36°27' W 002°03'611.3
2017-Jun-21 01:00N 36°28' W 001°56'611.4
2017-Jun-21 00:29N 36°30' W 001°49'1511.6
2017-Jun-20 23:10N 36°33' W 001°31'211.7
2017-Jun-20 23:00N 36°34' W 001°28'711.3
2017-Jun-20 22:25N 36°35' W 001°20'611.3
2017-Jun-20 21:51N 36°36' W 001°13'511.6
2017-Jun-20 21:27N 36°37' W 001°07'1411.8
2017-Jun-20 20:16N 36°40' W 000°50'311.7
2017-Jun-20 20:00N 36°41' W 000°46'611.8
2017-Jun-20 19:30N 36°42' W 000°39'612.0
2017-Jun-20 19:00N 36°43' W 000°32'611.9
2017-Jun-20 18:30N 36°45' W 000°24'611.6
2017-Jun-20 18:00N 36°46' W 000°17'611.5
2017-Jun-20 17:30N 36°47' W 000°10'611.5
2017-Jun-20 17:00N 36°48' W 000°03'611.5
2017-Jun-20 16:30N 36°50' E 000°04'611.8
2017-Jun-20 16:00N 36°51' E 000°11'611.9
2017-Jun-20 15:30N 36°52' E 000°18'611.8
2017-Jun-20 14:59N 36°53' E 000°26'1111.4
2017-Jun-20 14:00N 36°56' E 000°39'611.5
2017-Jun-20 13:30N 36°57' E 000°46'711.6
2017-Jun-20 12:54N 36°59' E 000°55'411.2
2017-Jun-20 12:30N 36°60' E 001°00'611.4
2017-Jun-20 12:00N 37°01' E 001°07'3311.7
2017-Jun-20 09:10N 37°06' E 001°48'212.0
2017-Jun-20 09:00N 37°06' E 001°51'612.2
2017-Jun-20 08:30N 37°07' E 001°58'612.1
2017-Jun-20 08:00N 37°08' E 002°06'3011.7
2017-Jun-20 05:24N 37°12' E 002°44'2711.5
2017-Jun-20 03:02N 37°16' E 003°18'011.3
2017-Jun-20 03:00N 37°17' E 003°18'611.5
2017-Jun-20 02:30N 37°17' E 003°25'611.6
2017-Jun-20 01:59N 37°18' E 003°33'611.5
2017-Jun-20 01:30N 37°19' E 003°40'611.7
2017-Jun-20 00:58N 37°20' E 003°47'511.5
2017-Jun-20 00:30N 37°21' E 003°54'611.3
2017-Jun-20 00:00N 37°22' E 004°01'611.5
2017-Jun-19 23:30N 37°23' E 004°08'611.4
2017-Jun-19 23:00N 37°23' E 004°15'611.4
2017-Jun-19 22:30N 37°24' E 004°22'611.6
2017-Jun-19 22:00N 37°25' E 004°30'811.5
2017-Jun-19 21:16N 37°26' E 004°40'311.6
2017-Jun-19 20:59N 37°27' E 004°44'911.6
2017-Jun-19 20:13N 37°28' E 004°56'211.5
2017-Jun-19 20:00N 37°28' E 004°59'611.4
2017-Jun-19 19:30N 37°29' E 005°06'611.4
2017-Jun-19 19:00N 37°30' E 005°13'611.4
2017-Jun-19 18:30N 37°31' E 005°20'611.4
2017-Jun-19 18:00N 37°32' E 005°27'611.5
2017-Jun-19 17:30N 37°32' E 005°34'611.7
2017-Jun-19 17:00N 37°33' E 005°41'611.7
2017-Jun-19 16:30N 37°34' E 005°49'611.7
2017-Jun-19 16:00N 37°35' E 005°56'611.6
2017-Jun-19 15:29N 37°36' E 006°04'611.6
2017-Jun-19 15:00N 37°37' E 006°10'1311.5
2017-Jun-19 13:55N 37°39' E 006°26'1511.6
2017-Jun-19 12:39N 37°41' E 006°44'7311.6
2017-Jun-19 06:20N 37°51' E 008°16'411.7
2017-Jun-19 06:00N 37°51' E 008°21'1611.6
2017-Jun-19 04:37N 37°52' E 008°41'211.5
2017-Jun-19 04:26N 37°52' E 008°44'511.5
2017-Jun-19 03:57N 37°52' E 008°51'2111.3
2017-Jun-19 02:04N 37°50' E 009°18'111.3
2017-Jun-19 02:00N 37°50' E 009°18'611.2
2017-Jun-19 01:30N 37°48' E 009°25'711.4
2017-Jun-19 00:56N 37°46' E 009°33'511.4
2017-Jun-19 00:30N 37°45' E 009°39'2911.6
2017-Jun-18 21:59N 37°39' E 010°15'611.6
2017-Jun-18 21:27N 37°37' E 010°22'511.3
2017-Jun-18 20:59N 37°36' E 010°29'1811.6
2017-Jun-18 19:28N 37°32' E 010°51'13111.5
2017-Jun-18 08:05N 36°44' E 013°24'111.5
2017-Jun-18 08:00N 36°44' E 013°25'611.6
2017-Jun-18 07:30N 36°42' E 013°32'611.6
2017-Jun-18 07:00N 36°40' E 013°38'611.7
2017-Jun-18 06:30N 36°38' E 013°45'611.5
2017-Jun-18 06:00N 36°36' E 013°52'611.5
2017-Jun-18 05:30N 36°34' E 013°59'611.6
2017-Jun-18 05:00N 36°33' E 014°06'611.6
2017-Jun-18 04:30N 36°31' E 014°12'611.6
2017-Jun-18 04:00N 36°29' E 014°19'611.6
2017-Jun-18 03:30N 36°27' E 014°26'611.6
2017-Jun-18 03:00N 36°25' E 014°33'611.6
2017-Jun-18 02:30N 36°24' E 014°40'611.6
2017-Jun-18 02:00N 36°22' E 014°47'611.5
2017-Jun-18 01:30N 36°20' E 014°54'911.6
2017-Jun-18 00:44N 36°17' E 015°04'311.6
2017-Jun-18 00:30N 36°16' E 015°07'611.4
2017-Jun-18 00:00N 36°15' E 015°14'611.1
2017-Jun-17 23:30N 36°13' E 015°21'611.3
2017-Jun-17 23:00N 36°12' E 015°27'611.5
2017-Jun-17 22:29N 36°10' E 015°34'611.7
2017-Jun-17 22:00N 36°08' E 015°41'611.8
2017-Jun-17 21:30N 36°06' E 015°48'612.0
2017-Jun-17 21:00N 36°04' E 015°55'612.0
2017-Jun-17 20:30N 36°02' E 016°02'611.8
2017-Jun-17 20:00N 36°01' E 016°09'1411.6
2017-Jun-17 18:47N 35°56' E 016°26'311.6
2017-Jun-17 18:30N 35°55' E 016°30'1011.6
2017-Jun-17 17:41N 35°52' E 016°41'4811.6
2017-Jun-17 13:29N 35°38' E 017°38'1011.5
2017-Jun-17 12:37N 35°35' E 017°49'111.5
2017-Jun-17 12:30N 35°34' E 017°51'611.5
2017-Jun-17 12:00N 35°32' E 017°58'9411.5
2017-Jun-17 03:53N 35°04' E 019°47'411.5
2017-Jun-17 03:30N 35°02' E 019°52'611.4
2017-Jun-17 03:00N 35°01' E 019°59'611.4
2017-Jun-17 02:28N 34°59' E 020°06'511.5
2017-Jun-17 02:00N 34°57' E 020°12'611.5
2017-Jun-17 01:30N 34°55' E 020°19'711.6
2017-Jun-17 00:55N 34°53' E 020°27'511.6
2017-Jun-17 00:30N 34°52' E 020°32'611.5
2017-Jun-17 00:00N 34°50' E 020°39'611.5
2017-Jun-16 23:30N 34°48' E 020°46'611.5
2017-Jun-16 22:57N 34°46' E 020°53'1811.5
2017-Jun-16 21:25N 34°41' E 021°13'2211.6
2017-Jun-16 19:32N 34°34' E 021°39'111.6
2017-Jun-16 19:29N 34°34' E 021°39'611.6
2017-Jun-16 19:00N 34°32' E 021°46'3811.5
2017-Jun-16 15:40N 34°21' E 022°30'211.4
2017-Jun-16 15:30N 34°20' E 022°32'11311.5
2017-Jun-16 05:41N 33°45' E 024°42'211.6
2017-Jun-16 05:29N 33°45' E 024°45'1411.5
2017-Jun-16 04:15N 33°40' E 025°01'2811.6
2017-Jun-16 01:52N 33°32' E 025°32'511.4
2017-Jun-16 01:26N 33°30' E 025°38'1611.6
2017-Jun-16 00:02N 33°26' E 025°57'111.7
2017-Jun-15 23:59N 33°25' E 025°58'811.5
2017-Jun-15 23:15N 33°23' E 026°07'311.6
2017-Jun-15 23:00N 33°22' E 026°10'1011.5
2017-Jun-15 22:09N 33°19' E 026°21'211.5
2017-Jun-15 22:00N 33°18' E 026°23'2711.5
2017-Jun-15 19:37N 33°10' E 026°55'111.3
2017-Jun-15 19:30N 33°09' E 026°56'  
Track history (hours):
 
Tides and Currents Weather Stations Pressure Air Temp Water Temp Dewpoint Dewpoint Depression Visibility Wind Speed Wind Dir Waves Ship Positions

Delta Ios

Last reported at 2017-Jun-25 11:59 UTC. Time now 2017-Jun-25 12:22 UTC.
Position N 49°37' W 003°25'.

Length 276 m; draft 15.7 m.

Type: Tanker. MMSI: 240821000.

Date/timePositionNaut miles runAvg speedWind from/ knotsBaromVisibWave heightAir tempDewpointWater temp
2017-Jun-25 11:59N 49°37' W 003°25'610.5
2017-Jun-25 11:25N 49°34' W 003°32'510.5
2017-Jun-25 10:59N 49°32' W 003°39'910.2
2017-Jun-25 10:07N 49°28' W 003°50'510.5
2017-Jun-25 09:38N 49°25' W 003°57'110.6
2017-Jun-25 09:30N 49°24' W 003°59'611.0
2017-Jun-25 08:58N 49°21' W 004°07'511.4
2017-Jun-25 08:29N 49°19' W 004°14'1612.0
2017-Jun-25 07:12N 49°11' W 004°35'412.6
2017-Jun-25 06:54N 49°09' W 004°39'812.9
2017-Jun-25 06:19N 49°05' W 004°50'413.2
2017-Jun-25 06:00N 49°03' W 004°55'613.2
2017-Jun-25 05:30N 48°60' W 005°04'713.5
2017-Jun-25 05:00N 48°56' W 005°12'713.5
2017-Jun-25 04:30N 48°53' W 005°21'713.3
2017-Jun-25 04:00N 48°50' W 005°30'713.1
2017-Jun-25 03:30N 48°46' W 005°38'713.2
2017-Jun-25 03:00N 48°40' W 005°43'613.0
2017-Jun-25 02:30N 48°34' W 005°48'612.8
2017-Jun-25 02:00N 48°29' W 005°52'712.4
2017-Jun-25 01:29N 48°23' W 005°57'612.4
2017-Jun-25 00:58N 48°17' W 006°01'612.2
2017-Jun-25 00:30N 48°12' W 006°05'712.2
2017-Jun-24 23:55N 48°06' W 006°10'512.3
2017-Jun-24 23:30N 48°02' W 006°14'612.1
2017-Jun-24 23:00N 47°56' W 006°18'811.5
2017-Jun-24 22:17N 47°49' W 006°24'52711.3
2017-Jun-22 23:33N 39°26' W 009°57'112.1
2017-Jun-22 23:30N 39°25' W 009°57'611.4
2017-Jun-22 23:00N 39°19' W 009°57'611.3
2017-Jun-22 22:30N 39°14' W 009°57'611.7
2017-Jun-22 22:00N 39°08' W 009°57'611.6
2017-Jun-22 21:30N 39°02' W 009°57'611.5
2017-Jun-22 21:00N 38°56' W 009°57'611.8
2017-Jun-22 20:30N 38°50' W 009°57'611.8
2017-Jun-22 20:00N 38°44' W 009°57'611.9
2017-Jun-22 19:30N 38°39' W 009°56'611.6
2017-Jun-22 19:00N 38°33' W 009°54'611.8
2017-Jun-22 18:30N 38°27' W 009°53'611.8
2017-Jun-22 18:00N 38°21' W 009°51'611.5
2017-Jun-22 17:30N 38°16' W 009°50'611.4
2017-Jun-22 17:00N 38°10' W 009°49'611.5
2017-Jun-22 16:30N 38°04' W 009°47'611.5
2017-Jun-22 16:00N 37°59' W 009°45'611.7
2017-Jun-22 15:30N 37°53' W 009°43'611.5
2017-Jun-22 15:00N 37°48' W 009°41'1211.4
2017-Jun-22 14:00N 37°37' W 009°38'611.6
2017-Jun-22 13:30N 37°31' W 009°36'611.4
2017-Jun-22 13:00N 37°25' W 009°34'611.5
2017-Jun-22 12:30N 37°20' W 009°33'611.5
2017-Jun-22 11:59N 37°14' W 009°31'611.5
2017-Jun-22 11:30N 37°09' W 009°30'611.6
2017-Jun-22 11:00N 37°03' W 009°28'611.6
2017-Jun-22 10:30N 36°57' W 009°26'611.6
2017-Jun-22 10:00N 36°52' W 009°24'611.4
2017-Jun-22 09:30N 36°47' W 009°20'611.8
2017-Jun-22 09:00N 36°43' W 009°15'611.7
2017-Jun-22 08:30N 36°40' W 009°09'611.4
2017-Jun-22 08:00N 36°38' W 009°02'611.4
2017-Jun-22 07:30N 36°36' W 008°55'611.5
2017-Jun-22 06:56N 36°34' W 008°48'911.6
2017-Jun-22 06:08N 36°31' W 008°36'211.5
2017-Jun-22 05:59N 36°31' W 008°34'511.3
2017-Jun-22 05:30N 36°29' W 008°28'611.4
2017-Jun-22 05:00N 36°27' W 008°21'811.6
2017-Jun-22 04:19N 36°25' W 008°12'411.6
2017-Jun-22 04:00N 36°24' W 008°08'611.4
2017-Jun-22 03:30N 36°22' W 008°01'611.4
2017-Jun-22 03:00N 36°20' W 007°54'611.9
2017-Jun-22 02:29N 36°18' W 007°47'611.5
2017-Jun-22 01:57N 36°16' W 007°40'511.3
2017-Jun-22 01:30N 36°15' W 007°34'611.2
2017-Jun-22 01:00N 36°13' W 007°27'2711.5
2017-Jun-21 22:40N 36°05' W 006°55'211.4
2017-Jun-21 22:30N 36°05' W 006°53'611.4
2017-Jun-21 21:59N 36°03' W 006°46'611.5
2017-Jun-21 21:28N 36°02' W 006°39'4911.5
2017-Jun-21 17:14N 35°58' W 005°39'2 9.6
2017-Jun-21 16:59N 35°58' W 005°36'5 9.4
2017-Jun-21 16:30N 35°60' W 005°30'5 9.2
2017-Jun-21 16:00N 36°01' W 005°25'510.3
2017-Jun-21 15:30N 36°02' W 005°19'611.3
2017-Jun-21 15:00N 36°03' W 005°12'15111.4
2017-Jun-21 01:46N 36°26' W 002°07'311.4
2017-Jun-21 01:30N 36°27' W 002°03'611.3
2017-Jun-21 01:00N 36°28' W 001°56'611.4
2017-Jun-21 00:29N 36°30' W 001°49'1511.6
2017-Jun-20 23:10N 36°33' W 001°31'211.7
2017-Jun-20 23:00N 36°34' W 001°28'711.3
2017-Jun-20 22:25N 36°35' W 001°20'611.3
2017-Jun-20 21:51N 36°36' W 001°13'511.6
2017-Jun-20 21:27N 36°37' W 001°07'1411.8
2017-Jun-20 20:16N 36°40' W 000°50'311.7
2017-Jun-20 20:00N 36°41' W 000°46'611.8
2017-Jun-20 19:30N 36°42' W 000°39'612.0
2017-Jun-20 19:00N 36°43' W 000°32'611.9
2017-Jun-20 18:30N 36°45' W 000°24'611.6
2017-Jun-20 18:00N 36°46' W 000°17'611.5
2017-Jun-20 17:30N 36°47' W 000°10'611.5
2017-Jun-20 17:00N 36°48' W 000°03'611.5
2017-Jun-20 16:30N 36°50' E 000°04'611.8
2017-Jun-20 16:00N 36°51' E 000°11'611.9
2017-Jun-20 15:30N 36°52' E 000°18'611.8
2017-Jun-20 14:59N 36°53' E 000°26'1111.4
2017-Jun-20 14:00N 36°56' E 000°39'611.5
2017-Jun-20 13:30N 36°57' E 000°46'711.6
2017-Jun-20 12:54N 36°59' E 000°55'411.2
2017-Jun-20 12:30N 36°60' E 001°00'611.4
2017-Jun-20 12:00N 37°01' E 001°07'3311.7
2017-Jun-20 09:10N 37°06' E 001°48'212.0
2017-Jun-20 09:00N 37°06' E 001°51'612.2
2017-Jun-20 08:30N 37°07' E 001°58'612.1
2017-Jun-20 08:00N 37°08' E 002°06'3011.7
2017-Jun-20 05:24N 37°12' E 002°44'2711.5
2017-Jun-20 03:02N 37°16' E 003°18'011.3
2017-Jun-20 03:00N 37°17' E 003°18'611.5
2017-Jun-20 02:30N 37°17' E 003°25'611.6
2017-Jun-20 01:59N 37°18' E 003°33'611.5
2017-Jun-20 01:30N 37°19' E 003°40'611.7
2017-Jun-20 00:58N 37°20' E 003°47'511.5
2017-Jun-20 00:30N 37°21' E 003°54'611.3
2017-Jun-20 00:00N 37°22' E 004°01'611.5
2017-Jun-19 23:30N 37°23' E 004°08'611.4
2017-Jun-19 23:00N 37°23' E 004°15'611.4
2017-Jun-19 22:30N 37°24' E 004°22'611.6
2017-Jun-19 22:00N 37°25' E 004°30'811.5
2017-Jun-19 21:16N 37°26' E 004°40'311.6
2017-Jun-19 20:59N 37°27' E 004°44'911.6
2017-Jun-19 20:13N 37°28' E 004°56'211.5
2017-Jun-19 20:00N 37°28' E 004°59'611.4
2017-Jun-19 19:30N 37°29' E 005°06'611.4
2017-Jun-19 19:00N 37°30' E 005°13'611.4
2017-Jun-19 18:30N 37°31' E 005°20'611.4
2017-Jun-19 18:00N 37°32' E 005°27'611.5
2017-Jun-19 17:30N 37°32' E 005°34'611.7
2017-Jun-19 17:00N 37°33' E 005°41'611.7
2017-Jun-19 16:30N 37°34' E 005°49'611.7
2017-Jun-19 16:00N 37°35' E 005°56'611.6
2017-Jun-19 15:29N 37°36' E 006°04'611.6
2017-Jun-19 15:00N 37°37' E 006°10'1311.5
2017-Jun-19 13:55N 37°39' E 006°26'1511.6
2017-Jun-19 12:39N 37°41' E 006°44'7311.6
2017-Jun-19 06:20N 37°51' E 008°16'411.7
2017-Jun-19 06:00N 37°51' E 008°21'1611.6
2017-Jun-19 04:37N 37°52' E 008°41'211.5
2017-Jun-19 04:26N 37°52' E 008°44'511.5
2017-Jun-19 03:57N 37°52' E 008°51'2111.3
2017-Jun-19 02:04N 37°50' E 009°18'111.3
2017-Jun-19 02:00N 37°50' E 009°18'611.2
2017-Jun-19 01:30N 37°48' E 009°25'711.4
2017-Jun-19 00:56N 37°46' E 009°33'511.4
2017-Jun-19 00:30N 37°45' E 009°39'2911.6
2017-Jun-18 21:59N 37°39' E 010°15'611.6
2017-Jun-18 21:27N 37°37' E 010°22'511.3
2017-Jun-18 20:59N 37°36' E 010°29'1811.6
2017-Jun-18 19:28N 37°32' E 010°51'13111.5
2017-Jun-18 08:05N 36°44' E 013°24'111.5
2017-Jun-18 08:00N 36°44' E 013°25'611.6
2017-Jun-18 07:30N 36°42' E 013°32'611.6
2017-Jun-18 07:00N 36°40' E 013°38'611.7
2017-Jun-18 06:30N 36°38' E 013°45'611.5
2017-Jun-18 06:00N 36°36' E 013°52'611.5
2017-Jun-18 05:30N 36°34' E 013°59'611.6
2017-Jun-18 05:00N 36°33' E 014°06'611.6
2017-Jun-18 04:30N 36°31' E 014°12'611.6
2017-Jun-18 04:00N 36°29' E 014°19'611.6
2017-Jun-18 03:30N 36°27' E 014°26'611.6
2017-Jun-18 03:00N 36°25' E 014°33'611.6
2017-Jun-18 02:30N 36°24' E 014°40'611.6
2017-Jun-18 02:00N 36°22' E 014°47'611.5
2017-Jun-18 01:30N 36°20' E 014°54'911.6
2017-Jun-18 00:44N 36°17' E 015°04'311.6
2017-Jun-18 00:30N 36°16' E 015°07'611.4
2017-Jun-18 00:00N 36°15' E 015°14'611.1
2017-Jun-17 23:30N 36°13' E 015°21'611.3
2017-Jun-17 23:00N 36°12' E 015°27'611.5
2017-Jun-17 22:29N 36°10' E 015°34'611.7
2017-Jun-17 22:00N 36°08' E 015°41'611.8
2017-Jun-17 21:30N 36°06' E 015°48'612.0
2017-Jun-17 21:00N 36°04' E 015°55'612.0
2017-Jun-17 20:30N 36°02' E 016°02'611.8
2017-Jun-17 20:00N 36°01' E 016°09'1411.6
2017-Jun-17 18:47N 35°56' E 016°26'311.6
2017-Jun-17 18:30N 35°55' E 016°30'1011.6
2017-Jun-17 17:41N 35°52' E 016°41'4811.6
2017-Jun-17 13:29N 35°38' E 017°38'1011.5
2017-Jun-17 12:37N 35°35' E 017°49'111.5
2017-Jun-17 12:30N 35°34' E 017°51'611.5
2017-Jun-17 12:00N 35°32' E 017°58'9411.5
2017-Jun-17 03:53N 35°04' E 019°47'411.5
2017-Jun-17 03:30N 35°02' E 019°52'611.4
2017-Jun-17 03:00N 35°01' E 019°59'611.4
2017-Jun-17 02:28N 34°59' E 020°06'511.5
2017-Jun-17 02:00N 34°57' E 020°12'611.5
2017-Jun-17 01:30N 34°55' E 020°19'711.6
2017-Jun-17 00:55N 34°53' E 020°27'511.6
2017-Jun-17 00:30N 34°52' E 020°32'611.5
2017-Jun-17 00:00N 34°50' E 020°39'611.5
2017-Jun-16 23:30N 34°48' E 020°46'611.5
2017-Jun-16 22:57N 34°46' E 020°53'1811.5
2017-Jun-16 21:25N 34°41' E 021°13'2211.6
2017-Jun-16 19:32N 34°34' E 021°39'111.6
2017-Jun-16 19:29N 34°34' E 021°39'611.6
2017-Jun-16 19:00N 34°32' E 021°46'3811.5
2017-Jun-16 15:40N 34°21' E 022°30'211.4
2017-Jun-16 15:30N 34°20' E 022°32'11311.5
2017-Jun-16 05:41N 33°45' E 024°42'211.6
2017-Jun-16 05:29N 33°45' E 024°45'1411.5
2017-Jun-16 04:15N 33°40' E 025°01'2811.6
2017-Jun-16 01:52N 33°32' E 025°32'511.4
2017-Jun-16 01:26N 33°30' E 025°38'1611.6
2017-Jun-16 00:02N 33°26' E 025°57'111.7
2017-Jun-15 23:59N 33°25' E 025°58'811.5
2017-Jun-15 23:15N 33°23' E 026°07'311.6
2017-Jun-15 23:00N 33°22' E 026°10'1011.5
2017-Jun-15 22:09N 33°19' E 026°21'211.5
2017-Jun-15 22:00N 33°18' E 026°23'2711.5
2017-Jun-15 19:37N 33°10' E 026°55'111.3
2017-Jun-15 19:30N 33°09' E 026°56'  

Dump ship's entire track history